createdAt,value
2022-12-23T00:01:25.670Z,110.80
2022-12-23T00:03:54.006Z,112.00
2022-12-23T00:06:23.595Z,108.85
2022-12-23T00:08:58.428Z,106.28
2022-12-23T00:11:27.859Z,109.60
2022-12-23T00:14:20.128Z,110.38
2022-12-23T00:16:51.543Z,111.43
2022-12-23T00:19:19.691Z,108.15
2022-12-23T00:21:48.481Z,109.20
2022-12-23T00:24:16.591Z,111.88
2022-12-23T00:26:44.480Z,116.85
2022-12-23T00:29:12.446Z,109.22
2022-12-23T00:31:40.433Z,112.25
2022-12-23T00:34:11.897Z,105.75
2022-12-23T00:36:41.106Z,113.32
2022-12-23T00:39:30.355Z,101.05
2022-12-23T00:42:15.642Z,108.47
2022-12-23T00:44:43.667Z,100.13
2022-12-23T00:47:32.136Z,109.43
2022-12-23T00:50:00.558Z,110.07
2022-12-23T00:52:28.481Z,117.57
2022-12-23T00:54:56.419Z,114.45
2022-12-23T00:57:24.283Z,113.43
2022-12-23T00:59:52.289Z,111.43
2022-12-23T01:02:37.735Z,118.53
2022-12-23T01:08:19.103Z,122.30
2022-12-23T01:10:47.078Z,129.95
2022-12-23T01:13:14.964Z,128.57
2022-12-23T01:15:42.931Z,125.60
2022-12-23T01:18:10.871Z,121.90
2022-12-23T01:20:39.159Z,116.63
2022-12-23T01:23:07.664Z,111.35
2022-12-23T01:25:37.012Z,116.75
2022-12-23T01:28:05.145Z,118.18
2022-12-23T01:30:33.110Z,117.28
2022-12-23T01:33:01.099Z,116.53
2022-12-23T01:35:29.086Z,117.53
2022-12-23T01:37:57.077Z,112.93
2022-12-23T01:40:25.019Z,100.43
2022-12-23T01:42:53.353Z,106.93
2022-12-23T01:45:25.878Z,101.75
2022-12-23T01:47:58.514Z,105.30
2022-12-23T01:50:30.898Z,102.72
2022-12-23T01:53:07.204Z,104.57
2022-12-23T01:55:41.280Z,110.20
2022-12-23T01:58:14.738Z,107.75
2022-12-23T02:01:01.145Z,111.18
2022-12-23T02:03:44.794Z,113.63
2022-12-23T02:06:38.025Z,113.63
2022-12-23T02:09:19.447Z,112.38
2022-12-23T02:12:29.798Z,114.60
2022-12-23T02:15:32.922Z,109.25
2022-12-23T02:18:13.778Z,107.32
2022-12-23T02:21:10.923Z,121.82
2022-12-23T02:24:03.610Z,106.40
2022-12-23T02:27:05.953Z,107.47
2022-12-23T02:30:09.226Z,106.88
2022-12-23T02:33:01.134Z,109.43
2022-12-23T02:35:34.672Z,111.93
2022-12-23T02:38:10.368Z,111.55
2022-12-23T02:40:45.458Z,120.25
2022-12-23T02:43:19.999Z,116.80
2022-12-23T02:45:55.831Z,116.65
2022-12-23T02:48:31.509Z,116.70
2022-12-23T02:51:01.556Z,111.57
2022-12-23T02:53:35.012Z,111.72
2022-12-23T02:56:04.991Z,114.72
2022-12-23T02:58:38.471Z,120.72
2022-12-23T03:01:08.028Z,117.80
2022-12-23T03:03:39.050Z,114.95
2022-12-23T03:06:18.934Z,124.53
2022-12-23T03:08:47.623Z,117.78
2022-12-23T03:11:17.860Z,118.85
2022-12-23T03:14:11.193Z,113.60
2022-12-23T03:16:53.056Z,110.68
2022-12-23T03:19:30.172Z,121.05
2022-12-23T03:22:07.115Z,120.97
2022-12-23T03:24:41.598Z,116.28
2022-12-23T03:27:16.289Z,116.47
2022-12-23T03:29:49.887Z,122.53
2022-12-23T03:32:20.496Z,118.40
2022-12-23T03:34:53.473Z,123.65
2022-12-23T03:37:24.673Z,126.10
2022-12-23T03:39:58.750Z,133.68
2022-12-23T03:42:32.905Z,129.60
2022-12-23T03:47:59.086Z,134.50
2022-12-23T03:50:30.255Z,141.43
2022-12-23T03:53:02.528Z,135.43
2022-12-23T03:55:35.662Z,136.88
2022-12-23T03:58:11.615Z,134.05
2022-12-23T04:00:45.857Z,143.00
2022-12-23T04:03:23.152Z,132.68
2022-12-23T04:05:55.819Z,133.48
2022-12-23T04:08:28.499Z,136.40
2022-12-23T04:10:56.696Z,138.00
2022-12-23T04:13:24.677Z,137.65
2022-12-23T04:15:52.838Z,148.50
2022-12-23T04:18:20.857Z,148.35
2022-12-23T04:20:48.865Z,141.73
2022-12-23T04:23:18.314Z,147.25
2022-12-23T04:25:46.276Z,133.45
2022-12-23T04:28:14.197Z,141.55
2022-12-23T04:30:42.202Z,139.80
2022-12-23T04:33:12.041Z,130.93
2022-12-23T04:35:40.306Z,133.98
2022-12-23T04:38:08.973Z,127.07
2022-12-23T04:40:38.421Z,122.05
2022-12-23T04:43:06.331Z,126.57
2022-12-23T04:45:34.326Z,118.97
2022-12-23T04:48:02.292Z,132.15
2022-12-23T04:50:30.174Z,125.22
2022-12-23T04:52:58.217Z,123.60
2022-12-23T04:55:26.190Z,126.60
2022-12-23T04:57:55.462Z,124.90
2022-12-23T05:00:23.485Z,126.05
2022-12-23T05:02:51.529Z,124.80
2022-12-23T05:05:19.574Z,130.00
2022-12-23T05:07:50.761Z,128.23
2022-12-23T05:10:18.930Z,123.30
2022-12-23T05:12:46.897Z,121.38
2022-12-23T05:15:16.252Z,138.93
2022-12-23T05:17:44.205Z,144.35
2022-12-23T05:20:12.553Z,135.20
2022-12-23T05:22:40.605Z,145.90
2022-12-23T05:25:09.785Z,150.05
2022-12-23T05:27:37.762Z,153.30
2022-12-23T05:30:06.784Z,147.45
2022-12-23T05:32:36.202Z,137.38
2022-12-23T05:35:04.227Z,140.80
2022-12-23T05:37:32.154Z,170.70
2022-12-23T05:40:00.124Z,158.82
2022-12-23T05:42:28.393Z,154.52
2022-12-23T05:44:56.313Z,154.07
2022-12-23T05:47:24.244Z,138.55
2022-12-23T05:49:53.617Z,150.10
2022-12-23T05:52:21.659Z,151.88
2022-12-23T05:54:49.616Z,141.35
2022-12-23T05:57:17.641Z,152.65
2022-12-23T05:59:45.570Z,143.90
2022-12-23T06:02:13.766Z,150.75
2022-12-23T06:04:41.823Z,144.85
2022-12-23T06:07:11.228Z,151.13
2022-12-23T06:09:39.195Z,135.48
2022-12-23T06:12:07.545Z,123.57
2022-12-23T06:14:35.559Z,124.45
2022-12-23T06:17:03.527Z,127.15
2022-12-23T06:19:31.512Z,120.88
2022-12-23T06:21:59.518Z,130.15
2022-12-23T06:24:28.870Z,145.93
2022-12-23T06:26:57.525Z,165.18
2022-12-23T06:29:25.748Z,166.70
2022-12-23T06:31:53.893Z,154.82
2022-12-23T06:34:21.957Z,141.60
2022-12-23T06:36:50.066Z,142.70
2022-12-23T06:39:17.978Z,143.00
2022-12-23T06:41:47.570Z,144.73
2022-12-23T06:44:15.804Z,136.13
2022-12-23T06:46:43.801Z,141.90
2022-12-23T06:49:13.752Z,138.07
2022-12-23T06:51:42.281Z,138.20
2022-12-23T06:54:12.388Z,141.30
2022-12-23T06:56:40.508Z,151.93
2022-12-23T06:59:09.882Z,149.70
2022-12-23T07:01:37.961Z,165.13
2022-12-23T07:04:06.244Z,159.80
2022-12-23T07:06:34.182Z,152.13
2022-12-23T07:09:02.243Z,155.20
2022-12-23T07:11:30.159Z,149.52
2022-12-23T07:13:59.521Z,139.90
2022-12-23T07:16:28.959Z,149.32
2022-12-23T07:18:57.040Z,132.15
2022-12-23T07:21:29.385Z,143.85
2022-12-23T07:23:57.954Z,135.98
2022-12-23T07:26:25.890Z,135.65
2022-12-23T07:28:53.860Z,137.25
2022-12-23T07:31:21.845Z,125.97
2022-12-23T07:33:51.255Z,128.35
2022-12-23T07:36:19.128Z,125.82
2022-12-23T07:38:50.593Z,133.07
2022-12-23T07:41:18.875Z,126.78
2022-12-23T07:43:46.937Z,126.47
2022-12-23T07:46:15.116Z,122.78
2022-12-23T07:48:43.271Z,119.10
2022-12-23T07:51:12.774Z,120.13
2022-12-23T07:53:40.799Z,113.43
2022-12-23T07:56:09.449Z,119.15
2022-12-23T07:58:37.454Z,128.80
2022-12-23T08:01:08.096Z,114.88
2022-12-23T08:03:37.021Z,121.97
2022-12-23T08:06:07.358Z,112.45
2022-12-23T08:08:37.169Z,109.90
2022-12-23T08:11:07.053Z,108.65
2022-12-23T08:13:36.439Z,107.47
2022-12-23T08:16:06.406Z,110.63
2022-12-23T08:18:35.768Z,108.38
2022-12-23T08:21:06.317Z,114.70
2022-12-23T08:23:36.377Z,118.25
2022-12-23T08:26:06.402Z,114.78
2022-12-23T08:28:35.508Z,119.07
2022-12-23T08:31:06.961Z,119.32
2022-12-23T08:33:36.391Z,111.32
2022-12-23T08:36:05.240Z,119.70
2022-12-23T08:38:33.567Z,114.82
2022-12-23T08:41:03.378Z,114.57
2022-12-23T08:43:35.784Z,113.45
2022-12-23T08:46:04.324Z,125.15
2022-12-23T08:48:32.824Z,116.63
2022-12-23T08:51:04.283Z,116.60
2022-12-23T08:53:32.320Z,118.63
2022-12-23T08:56:05.128Z,121.72
2022-12-23T08:58:33.296Z,121.07
2022-12-23T09:01:05.003Z,141.68
2022-12-23T09:03:33.666Z,137.20
2022-12-23T09:06:05.864Z,134.98
2022-12-23T09:08:34.053Z,125.95
2022-12-23T09:11:03.597Z,120.47
2022-12-23T09:13:35.683Z,121.05
2022-12-23T09:16:04.173Z,112.85
2022-12-23T09:18:32.417Z,108.20
2022-12-23T09:21:01.282Z,108.95
2022-12-23T09:23:29.647Z,106.75
2022-12-23T09:25:57.740Z,103.60
2022-12-23T09:28:27.647Z,106.78
2022-12-23T09:30:55.668Z,105.60
2022-12-23T09:33:24.011Z,107.03
2022-12-23T09:35:51.943Z,90.70
2022-12-23T09:38:19.809Z,86.20
2022-12-23T09:40:47.738Z,95.72
2022-12-23T09:43:27.362Z,82.60
2022-12-23T09:46:07.430Z,83.72
2022-12-23T09:48:42.724Z,89.45
2022-12-23T09:51:12.360Z,91.20
2022-12-23T09:53:50.655Z,86.25
2022-12-23T09:56:26.385Z,85.20
2022-12-23T09:59:04.990Z,85.03
2022-12-23T10:01:44.629Z,83.32
2022-12-23T10:04:38.971Z,83.75
2022-12-23T10:07:19.460Z,85.60
2022-12-23T10:09:50.415Z,86.40
2022-12-23T10:12:28.818Z,85.93
2022-12-23T10:15:02.602Z,86.22
2022-12-23T10:17:36.287Z,84.10
2022-12-23T10:20:11.288Z,81.25
2022-12-23T10:25:16.083Z,81.75
2022-12-23T10:27:45.077Z,84.35
2022-12-23T10:30:42.427Z,80.70
2022-12-23T10:33:13.122Z,80.50
2022-12-23T10:35:50.130Z,80.47
2022-12-23T10:38:32.547Z,79.95
2022-12-23T10:41:09.528Z,77.32
2022-12-23T10:43:48.448Z,87.90
2022-12-23T10:46:23.766Z,89.57
2022-12-23T10:49:01.049Z,79.78
2022-12-23T10:51:34.079Z,78.60
2022-12-23T10:54:06.596Z,77.90
2022-12-23T10:56:35.031Z,77.20
2022-12-23T10:59:03.157Z,76.15
2022-12-23T11:01:32.423Z,80.75
2022-12-23T11:04:10.166Z,81.80
2022-12-23T11:06:40.715Z,79.60
2022-12-23T11:09:16.226Z,82.80
2022-12-23T11:14:32.081Z,94.93
2022-12-23T11:17:00.108Z,87.13
2022-12-23T11:19:29.708Z,138.77
2022-12-23T11:21:59.778Z,126.90
2022-12-23T11:24:35.420Z,115.35
2022-12-23T11:27:07.413Z,92.43
2022-12-23T11:29:38.601Z,93.38
2022-12-23T11:32:19.748Z,95.85
2022-12-23T11:34:50.195Z,97.22
2022-12-23T11:37:36.704Z,95.85
2022-12-23T11:40:06.428Z,95.88
2022-12-23T11:42:36.007Z,99.15
2022-12-23T11:45:08.555Z,91.40
2022-12-23T11:47:41.066Z,89.25
2022-12-23T11:50:29.002Z,82.10
2022-12-23T11:53:04.991Z,91.18
2022-12-23T11:55:33.952Z,87.25
2022-12-23T11:58:03.889Z,87.47
2022-12-23T12:00:40.212Z,87.15
2022-12-23T12:03:15.415Z,86.15
2022-12-23T12:05:50.993Z,88.43
2022-12-23T12:08:23.675Z,89.57
2022-12-23T12:10:53.941Z,88.55
2022-12-23T12:13:27.740Z,88.90
2022-12-23T12:16:10.754Z,91.07
2022-12-23T12:18:40.994Z,89.15
2022-12-23T12:21:16.186Z,82.60
2022-12-23T12:23:48.775Z,88.47
2022-12-23T12:26:25.019Z,90.53
2022-12-23T12:28:58.307Z,87.97
2022-12-23T12:31:31.603Z,87.72
2022-12-23T12:34:05.245Z,86.57
2022-12-23T12:36:42.983Z,92.82
2022-12-23T12:39:19.241Z,93.32
2022-12-23T12:41:52.615Z,97.93
2022-12-23T12:44:31.252Z,96.15
2022-12-23T12:47:28.091Z,90.13
2022-12-23T12:49:58.319Z,94.20
2022-12-23T12:52:29.311Z,95.70
2022-12-23T12:55:03.164Z,88.72
2022-12-23T12:57:33.419Z,95.65
2022-12-23T13:00:06.531Z,95.90
2022-12-23T13:03:05.654Z,96.15
2022-12-23T13:05:51.676Z,90.97
2022-12-23T13:08:33.893Z,91.15
2022-12-23T13:11:10.997Z,89.82
2022-12-23T13:13:46.552Z,81.97
2022-12-23T13:16:25.351Z,81.60
2022-12-23T13:18:59.501Z,99.55
2022-12-23T13:21:33.980Z,90.90
2022-12-23T13:24:16.126Z,86.32
2022-12-23T13:26:56.246Z,91.40
2022-12-23T13:30:05.799Z,91.60
2022-12-23T13:32:50.810Z,94.80
2022-12-23T13:35:33.701Z,96.40
2022-12-23T13:38:19.962Z,98.32
2022-12-23T13:40:58.698Z,94.32
2022-12-23T13:43:30.880Z,93.20
2022-12-23T13:46:01.707Z,93.97
2022-12-23T13:48:40.286Z,95.07
2022-12-23T13:51:15.333Z,96.05
2022-12-23T13:56:28.201Z,93.85
2022-12-23T13:58:57.298Z,93.03
2022-12-23T14:01:37.742Z,90.15
2022-12-23T14:04:32.223Z,89.03
2022-12-23T14:07:02.045Z,87.40
2022-12-23T14:09:34.056Z,90.45
2022-12-23T14:12:21.073Z,93.35
2022-12-23T14:15:16.440Z,94.72
2022-12-23T14:17:51.886Z,94.25
2022-12-23T14:20:32.703Z,100.78
2022-12-23T14:23:15.344Z,99.72
2022-12-23T14:25:56.400Z,104.05
2022-12-23T14:28:38.466Z,98.68
2022-12-23T14:31:06.660Z,95.22
2022-12-23T14:33:37.827Z,94.65
2022-12-23T14:36:23.377Z,101.22
2022-12-23T14:39:24.347Z,104.65
2022-12-23T14:41:56.522Z,108.78
2022-12-23T14:44:51.718Z,106.05
2022-12-23T14:47:35.382Z,108.88
2022-12-23T14:50:37.941Z,110.13
2022-12-23T14:53:20.434Z,111.25
2022-12-23T14:55:50.078Z,109.30
2022-12-23T14:58:55.457Z,110.50
2022-12-23T15:01:31.460Z,103.55
2022-12-23T15:04:01.806Z,104.97
2022-12-23T15:06:36.487Z,95.95
2022-12-23T15:09:07.441Z,103.32
2022-12-23T15:11:37.530Z,100.03
2022-12-23T15:14:13.564Z,101.28
2022-12-23T15:16:45.235Z,101.68
2022-12-23T15:19:25.901Z,105.07
2022-12-23T15:22:17.961Z,120.47
2022-12-23T15:24:50.689Z,128.32
2022-12-23T15:27:29.352Z,125.40
2022-12-23T15:29:59.283Z,123.80
2022-12-23T15:32:30.660Z,142.40
2022-12-23T15:35:05.150Z,160.40
2022-12-23T15:37:36.820Z,148.20
2022-12-23T15:40:13.436Z,141.57
2022-12-23T15:42:50.747Z,134.45
2022-12-23T15:45:43.568Z,149.75
2022-12-23T15:48:26.599Z,142.73
2022-12-23T15:50:58.387Z,123.20
2022-12-23T15:53:32.400Z,388.42
2022-12-23T15:56:05.024Z,168.65
2022-12-23T15:58:35.092Z,143.43
2022-12-23T16:01:03.324Z,144.00
2022-12-23T16:03:35.230Z,141.95
2022-12-23T16:06:11.537Z,135.40
2022-12-23T16:08:40.444Z,133.85
2022-12-23T16:11:16.035Z,239.52
2022-12-23T16:13:58.671Z,232.73
2022-12-23T16:16:38.198Z,200.82
2022-12-23T16:19:27.995Z,189.90
2022-12-23T16:21:55.989Z,162.15
2022-12-23T16:24:24.042Z,171.88
2022-12-23T16:26:52.140Z,166.82
2022-12-23T16:29:20.830Z,152.90
2022-12-23T16:31:54.426Z,141.70
2022-12-23T16:34:31.864Z,141.50
2022-12-23T16:36:59.824Z,146.68
2022-12-23T16:39:28.011Z,150.63
2022-12-23T16:41:55.978Z,244.68
2022-12-23T16:44:26.446Z,241.40
2022-12-23T16:46:54.391Z,195.60
2022-12-23T16:49:29.494Z,232.05
2022-12-23T16:52:00.979Z,258.90
2022-12-23T16:54:29.101Z,228.10
2022-12-23T16:56:57.225Z,213.68
2022-12-23T16:59:26.060Z,155.57
2022-12-23T17:01:58.182Z,162.05
2022-12-23T17:04:31.002Z,161.82
2022-12-23T17:07:00.435Z,150.80
2022-12-23T17:09:28.439Z,200.93
2022-12-23T17:11:56.661Z,195.88
2022-12-23T17:14:26.064Z,152.93
2022-12-23T17:16:54.239Z,166.93
2022-12-23T17:19:28.613Z,161.20
2022-12-23T17:22:02.816Z,180.23
2022-12-23T17:24:30.871Z,183.60
2022-12-23T17:26:59.219Z,171.63
2022-12-23T17:29:28.241Z,200.98
2022-12-23T17:31:56.459Z,221.90
2022-12-23T17:34:25.692Z,218.57
2022-12-23T17:36:53.836Z,225.70
2022-12-23T17:39:23.765Z,416.98
2022-12-23T17:41:52.021Z,467.67
2022-12-23T17:44:20.128Z,290.13
2022-12-23T17:46:48.391Z,251.52
2022-12-23T17:49:16.306Z,264.77
2022-12-23T17:51:44.532Z,199.60
2022-12-23T17:54:22.608Z,181.07
2022-12-23T17:56:52.856Z,199.60
2022-12-23T17:59:21.691Z,234.38
2022-12-23T18:01:50.460Z,215.93
2022-12-23T18:04:18.644Z,230.32
2022-12-23T18:06:48.762Z,224.73
2022-12-23T18:09:16.923Z,216.55
2022-12-23T18:11:46.393Z,216.32
2022-12-23T18:14:19.240Z,244.98
2022-12-23T18:16:47.784Z,216.15
2022-12-23T18:19:19.102Z,225.10
2022-12-23T18:21:47.399Z,234.65
2022-12-23T18:24:15.795Z,247.05
2022-12-23T18:26:44.092Z,241.82
2022-12-23T18:29:12.120Z,218.48
2022-12-23T18:31:51.528Z,235.93
2022-12-23T18:34:20.709Z,237.40
2022-12-23T18:36:51.537Z,246.50
2022-12-23T18:39:20.138Z,254.45
2022-12-23T18:41:48.148Z,251.68
2022-12-23T18:44:19.015Z,263.15
2022-12-23T18:46:49.152Z,279.55
2022-12-23T18:49:20.067Z,271.33
2022-12-23T18:51:48.746Z,269.75
2022-12-23T18:54:19.629Z,243.07
2022-12-23T18:56:49.293Z,221.65
2022-12-23T18:59:29.622Z,184.45
2022-12-23T19:02:05.240Z,177.88
2022-12-23T19:04:35.436Z,185.15
2022-12-23T19:07:05.795Z,182.02
2022-12-23T19:09:33.820Z,180.18
2022-12-23T19:12:01.836Z,174.63
2022-12-23T19:14:29.760Z,174.63
2022-12-23T19:17:01.042Z,184.88
2022-12-23T19:19:28.952Z,190.88
2022-12-23T19:21:56.871Z,181.93
2022-12-23T19:24:25.064Z,208.95
2022-12-23T19:26:53.005Z,210.40
2022-12-23T19:29:20.878Z,216.60
2022-12-23T19:31:48.835Z,204.43
2022-12-23T19:34:18.190Z,208.40
2022-12-23T19:36:46.218Z,222.70
2022-12-23T19:39:16.669Z,221.77
2022-12-23T19:41:45.333Z,219.23
2022-12-23T19:44:13.331Z,223.82
2022-12-23T19:46:41.518Z,222.48
2022-12-23T19:49:14.036Z,213.80
2022-12-23T19:51:47.154Z,216.75
2022-12-23T19:54:15.240Z,212.07
2022-12-23T19:56:43.234Z,210.82
2022-12-23T19:59:11.266Z,189.70
2022-12-23T20:01:39.421Z,196.95
2022-12-23T20:04:07.490Z,188.82
2022-12-23T20:06:38.367Z,193.98
2022-12-23T20:09:08.791Z,188.40
2022-12-23T20:11:38.951Z,190.23
2022-12-23T20:14:07.911Z,180.23
2022-12-23T20:16:37.496Z,178.90
2022-12-23T20:19:05.926Z,186.65
2022-12-23T20:21:34.093Z,176.10
2022-12-23T20:24:02.494Z,191.18
2022-12-23T20:26:31.846Z,166.30
2022-12-23T20:29:00.018Z,203.57
2022-12-23T20:31:30.080Z,196.13
2022-12-23T20:33:59.455Z,182.45
2022-12-23T20:36:29.673Z,165.02
2022-12-23T20:38:57.938Z,183.68
2022-12-23T20:41:29.671Z,177.90
2022-12-23T20:46:48.124Z,174.80
2022-12-23T20:49:16.320Z,182.48
2022-12-23T20:51:44.261Z,200.35
2022-12-23T20:54:12.767Z,189.65
2022-12-23T20:56:43.542Z,166.55
2022-12-23T20:59:13.160Z,176.15
2022-12-23T21:01:42.076Z,185.02
2022-12-23T21:04:12.833Z,166.63
2022-12-23T21:06:41.075Z,178.98
2022-12-23T21:09:11.716Z,170.63
2022-12-23T21:11:43.154Z,156.07
2022-12-23T21:14:13.820Z,165.95
2022-12-23T21:16:42.072Z,164.40
2022-12-23T21:19:14.871Z,175.63
2022-12-23T21:21:42.795Z,167.35
2022-12-23T21:24:11.080Z,155.68
2022-12-23T21:26:39.693Z,145.43
2022-12-23T21:29:09.465Z,162.23
2022-12-23T21:31:42.139Z,166.60
2022-12-23T21:34:14.302Z,165.05
2022-12-23T21:36:43.732Z,157.73
2022-12-23T21:39:14.701Z,157.13
2022-12-23T21:41:43.131Z,152.55
2022-12-23T21:44:13.647Z,155.20
2022-12-23T21:46:43.209Z,150.38
2022-12-23T21:49:11.991Z,145.25
2022-12-23T21:51:41.525Z,141.98
2022-12-23T21:54:11.647Z,138.10
2022-12-23T21:56:41.389Z,155.00
2022-12-23T21:59:12.924Z,156.52
2022-12-23T22:01:43.048Z,156.80
2022-12-23T22:04:11.136Z,157.63
2022-12-23T22:06:43.541Z,146.00
2022-12-23T22:09:13.248Z,157.65
2022-12-23T22:11:41.244Z,168.77
2022-12-23T22:14:11.695Z,179.07
2022-12-23T22:16:39.741Z,179.00
2022-12-23T22:19:09.618Z,170.05
2022-12-23T22:21:39.573Z,187.05
2022-12-23T22:24:08.417Z,178.80
2022-12-23T22:26:37.269Z,181.40
2022-12-23T22:29:07.248Z,181.75
2022-12-23T22:31:39.898Z,161.70
2022-12-23T22:34:13.661Z,179.88
2022-12-23T22:36:41.678Z,163.10
2022-12-23T22:39:11.893Z,153.98
2022-12-23T22:41:43.881Z,158.98
2022-12-23T22:44:13.835Z,147.00
2022-12-23T22:46:41.913Z,172.57
2022-12-23T22:49:13.083Z,166.63
2022-12-23T22:51:41.995Z,169.60
2022-12-23T22:54:10.456Z,151.10
2022-12-23T22:56:38.555Z,169.85
2022-12-23T22:59:06.868Z,160.18
2022-12-23T23:01:36.576Z,174.15
2022-12-23T23:04:05.415Z,173.10
2022-12-23T23:06:38.085Z,174.35
2022-12-23T23:09:08.972Z,146.80
2022-12-23T23:11:37.219Z,164.30
2022-12-23T23:14:05.715Z,180.52
2022-12-23T23:16:34.630Z,169.00
2022-12-23T23:19:03.133Z,156.27
2022-12-23T23:21:31.319Z,163.77
2022-12-23T23:24:00.603Z,155.75
2022-12-23T23:26:28.571Z,161.68
2022-12-23T23:28:57.686Z,150.85
2022-12-23T23:31:43.242Z,147.48
2022-12-23T23:34:12.245Z,147.00
2022-12-23T23:36:40.507Z,145.10
2022-12-23T23:39:11.991Z,154.27
2022-12-23T23:41:41.077Z,160.27
2022-12-23T23:44:09.083Z,159.77
2022-12-23T23:46:37.123Z,164.80
2022-12-23T23:49:05.220Z,163.82
2022-12-23T23:51:33.192Z,158.32
2022-12-23T23:54:01.178Z,142.23
2022-12-23T23:56:37.587Z,134.68
2022-12-23T23:59:06.848Z,129.35
